KSPI/SPI METAR and TAF weather

Enter ICAO airport designator
Station Type Date Time Source
KSPI METAR 2018/12/12 11:52 UTC NOAA

KSPI 121152Z 20015G24KT 10SM CLR 03/M01 A2982 RMK AO2 SLP101 T00331006 10044 20033 55009


Station Type Date Time Source
KSPI Decoded METAR 2018/12/12 11:52 UTC NOAA

ABRAHAM LINCOLN CAPITAL AIRPORT , IL, United States (KSPI) 39-51N 89-41W 181M
Dec 12, 2018 - 06:52 AM EST / 2018.12.12 1152 UTC
Wind: from the SSW (200 degrees) at 17 MPH (15 KT) gusting to 28 MPH (24 KT):0
Visibility: 10 mile(s):0
Sky conditions: clear
Temperature: 37.9 F (3.3 C)
Dew Point: 30.9 F (-0.6 C)
Relative Humidity: 75%
Pressure (altimeter): 29.82 in. Hg (1009 hPa)
Pressure tendency: 0.03 inches (0.9 hPa) lower than three hours ago
ob: KSPI 121152Z 20015G24KT 10SM CLR 03/M01 A2982 RMK AO2 SLP101 T00331006 10044 20033 55009
cycle: 12

Station Type Date Time Source
KSPI TAF 2018/12/12 12:22 UTC NOAA

TAF KSPI 121120Z 1212/1312 20015KT P6SM SCT250
FM121600 25015G22KT P6SM SCT035 BKN250
FM122300 23005KT P6SM BKN250


Example: see airport list